Time;durP1;ratioP1;P1;durP2;ratioP2;P2;SDS_P1;SDS_P2;PMS_P1;PMS_P2;Temp;Humidity;BMP_temperature;BMP_pressure;BME280_temperature;BME280_humidity;BME280_pressure;Samples;Min_cycle;Max_cycle;Signal;HPM_P1;HPM_P2
2024/01/21 00:00:06;;;;;;;35.35;19.87;;;-6.40;99.90;;;;;;503028;236;27453;-65
2024/01/21 00:02:07;;;;;;;28.42;16.77;;;-6.50;99.90;;;;;;503058;236;27554;-65
2024/01/21 00:04:08;;;;;;;32.20;16.27;;;-6.60;99.90;;;;;;503070;236;27471;-65
2024/01/21 00:06:09;;;;;;;25.67;15.82;;;-6.60;99.90;;;;;;503008;236;27949;-64
2024/01/21 00:08:11;;;;;;;28.77;15.75;;;-6.70;99.90;;;;;;502710;236;27872;-64
2024/01/21 00:10:12;;;;;;;28.90;16.17;;;-6.80;99.90;;;;;;502746;236;27491;-64
2024/01/21 00:12:13;;;;;;;26.35;14.07;;;-6.80;99.90;;;;;;502635;236;27482;-64
2024/01/21 00:14:14;;;;;;;23.92;14.00;;;-6.70;99.90;;;;;;503074;236;27450;-65
2024/01/21 00:16:16;;;;;;;23.80;14.07;;;-6.80;99.90;;;;;;503045;236;27491;-64
2024/01/21 00:18:17;;;;;;;27.10;15.25;;;-6.80;99.90;;;;;;503090;236;27718;-65
2024/01/21 00:20:18;;;;;;;27.13;15.27;;;-6.80;99.90;;;;;;503065;236;27890;-64
2024/01/21 00:22:19;;;;;;;24.58;15.55;;;-6.90;99.90;;;;;;503049;236;27506;-65
2024/01/21 00:24:21;;;;;;;25.20;13.38;;;-6.80;99.90;;;;;;503032;236;27435;-64
2024/01/21 00:26:22;;;;;;;26.73;14.77;;;-6.80;99.90;;;;;;502850;236;27453;-64
2024/01/21 00:28:23;;;;;;;27.25;13.73;;;-6.80;99.90;;;;;;503075;236;27505;-65
2024/01/21 00:30:24;;;;;;;28.45;14.85;;;-6.80;99.90;;;;;;503032;236;27459;-64
2024/01/21 00:32:26;;;;;;;32.38;15.18;;;-6.80;99.90;;;;;;503015;236;27935;-65
2024/01/21 00:34:27;;;;;;;33.22;15.60;;;-6.70;99.90;;;;;;503016;236;27930;-64
2024/01/21 00:36:28;;;;;;;29.00;15.32;;;-6.60;99.90;;;;;;502997;236;27446;-64
2024/01/21 00:38:30;;;;;;;28.23;15.80;;;-6.60;99.90;;;;;;503068;236;27498;-65
2024/01/21 00:40:31;;;;;;;24.52;13.95;;;-6.60;99.90;;;;;;503017;236;28535;-64
2024/01/21 00:42:32;;;;;;;23.23;13.70;;;-6.60;99.90;;;;;;502996;236;27527;-64
2024/01/21 00:44:33;;;;;;;30.33;15.90;;;-6.60;99.90;;;;;;503029;236;27986;-65
2024/01/21 00:46:35;;;;;;;33.35;16.05;;;-6.60;99.90;;;;;;503048;236;28030;-65
2024/01/21 00:48:36;;;;;;;31.37;15.00;;;-6.60;99.90;;;;;;502857;236;27517;-65
2024/01/21 00:50:37;;;;;;;26.23;14.40;;;-6.80;99.90;;;;;;503012;236;27584;-64
2024/01/21 00:52:38;;;;;;;29.58;16.80;;;-6.90;99.90;;;;;;503019;236;27541;-65
2024/01/21 00:54:40;;;;;;;32.28;16.27;;;-7.00;99.90;;;;;;502947;236;27568;-65
2024/01/21 00:56:41;;;;;;;31.10;16.52;;;-7.10;99.90;;;;;;503028;236;27430;-64
2024/01/21 00:58:42;;;;;;;29.73;15.52;;;-7.20;99.90;;;;;;503014;236;27967;-65
2024/01/21 01:00:43;;;;;;;25.67;14.87;;;-7.20;99.90;;;;;;503001;236;27639;-64
2024/01/21 01:02:45;;;;;;;25.33;14.30;;;-7.20;99.90;;;;;;503043;236;27446;-65
2024/01/21 01:04:46;;;;;;;25.75;13.02;;;-7.20;99.90;;;;;;502990;236;27474;-65
2024/01/21 01:06:47;;;;;;;26.02;14.40;;;-7.20;99.90;;;;;;503011;236;27475;-65
2024/01/21 01:08:48;;;;;;;29.83;15.20;;;-7.10;99.90;;;;;;503026;236;27470;-64
2024/01/21 01:10:50;;;;;;;30.08;16.60;;;-7.10;99.90;;;;;;503035;236;27954;-66
2024/01/21 01:12:51;;;;;;;27.87;15.52;;;-7.20;99.90;;;;;;503036;236;27896;-64
2024/01/21 01:14:52;;;;;;;27.00;15.75;;;-7.10;99.90;;;;;;502996;236;27568;-65
2024/01/21 01:16:53;;;;;;;30.02;14.98;;;-7.10;99.90;;;;;;503012;236;27448;-64
2024/01/21 01:18:55;;;;;;;32.20;17.15;;;-7.00;99.90;;;;;;503050;236;27461;-64
2024/01/21 01:20:56;;;;;;;29.87;15.18;;;-7.20;99.90;;;;;;502928;236;27506;-65
2024/01/21 01:22:58;;;;;;;25.20;15.52;;;-7.30;99.90;;;;;;503026;236;27926;-64
2024/01/21 01:24:58;;;;;;;35.20;19.00;;;-7.40;99.90;;;;;;502949;236;28018;-64
2024/01/21 01:27:00;;;;;;;30.48;16.10;;;-7.40;99.90;;;;;;502982;236;27482;-64
2024/01/21 01:29:01;;;;;;;30.12;15.90;;;-7.30;99.90;;;;;;503027;236;27440;-65
2024/01/21 01:31:02;;;;;;;31.65;15.93;;;-7.30;99.90;;;;;;503018;236;27552;-65
2024/01/21 01:33:04;;;;;;;27.80;16.55;;;-7.30;99.90;;;;;;503012;236;27462;-64
2024/01/21 01:35:05;;;;;;;28.50;15.45;;;-7.30;99.90;;;;;;502933;236;27562;-65
2024/01/21 01:37:08;;;;;;;24.05;14.55;;;-7.30;99.90;;;;;;503013;236;29069;-65
2024/01/21 01:39:07;;;;;;;24.63;14.82;;;-7.30;99.90;;;;;;502794;236;27601;-64
2024/01/21 01:41:09;;;;;;;27.75;16.00;;;-7.20;99.90;;;;;;503005;236;27477;-65
2024/01/21 01:43:10;;;;;;;25.95;13.88;;;-7.20;99.90;;;;;;502999;236;27563;-64
2024/01/21 01:45:11;;;;;;;27.35;14.25;;;-7.10;99.90;;;;;;503019;236;27450;-64
2024/01/21 01:47:12;;;;;;;26.02;14.80;;;-7.40;99.90;;;;;;503035;236;27510;-65
2024/01/21 01:49:14;;;;;;;20.33;12.40;;;-7.40;99.90;;;;;;502974;236;27983;-64
2024/01/21 01:51:15;;;;;;;24.80;13.93;;;-7.30;99.90;;;;;;503005;236;27942;-64
2024/01/21 01:53:16;;;;;;;26.48;14.43;;;-7.30;99.90;;;;;;502992;236;27458;-64
2024/01/21 01:55:17;;;;;;;23.58;12.18;;;-7.30;99.90;;;;;;502990;236;27581;-65
2024/01/21 01:57:19;;;;;;;19.45;11.77;;;-7.20;99.90;;;;;;503020;236;27473;-65
2024/01/21 01:59:20;;;;;;;19.12;11.65;;;-7.10;99.90;;;;;;503008;236;27519;-64
2024/01/21 02:01:21;;;;;;;22.52;12.18;;;-7.10;99.90;;;;;;502985;236;27927;-64
2024/01/21 02:03:23;;;;;;;21.17;11.85;;;-7.10;99.90;;;;;;502987;236;28007;-65
2024/01/21 02:05:24;;;;;;;29.45;14.95;;;-7.10;99.90;;;;;;502999;236;27438;-64
2024/01/21 02:07:25;;;;;;;21.67;14.27;;;-7.20;99.90;;;;;;503047;236;27557;-64
2024/01/21 02:09:26;;;;;;;24.90;14.90;;;-7.20;99.90;;;;;;503078;236;27513;-64
2024/01/21 02:11:27;;;;;;;31.40;15.75;;;-7.30;99.90;;;;;;503028;236;27513;-64
2024/01/21 02:13:29;;;;;;;27.70;14.43;;;-7.30;99.90;;;;;;503032;236;28018;-64
2024/01/21 02:15:30;;;;;;;23.10;13.38;;;-7.30;99.90;;;;;;502958;236;29085;-65
2024/01/21 02:17:31;;;;;;;27.13;13.48;;;-7.20;99.90;;;;;;502986;236;28686;-65
2024/01/21 02:19:33;;;;;;;22.35;12.00;;;-7.20;99.90;;;;;;503053;236;27477;-64
2024/01/21 02:21:34;;;;;;;22.10;12.75;;;-7.20;99.90;;;;;;503029;236;27499;-64
2024/01/21 02:23:35;;;;;;;19.90;12.40;;;-7.20;99.90;;;;;;502999;236;27620;-64
2024/01/21 02:25:36;;;;;;;19.83;12.30;;;-7.20;99.90;;;;;;502965;236;27433;-64
2024/01/21 02:27:38;;;;;;;21.50;12.52;;;-7.30;99.90;;;;;;502991;236;28024;-64
2024/01/21 02:29:39;;;;;;;20.85;12.02;;;-7.30;99.90;;;;;;503046;236;27502;-66
2024/01/21 02:31:40;;;;;;;25.35;12.95;;;-7.30;99.90;;;;;;503030;236;27450;-64
2024/01/21 02:33:41;;;;;;;22.95;12.65;;;-7.30;99.90;;;;;;503004;236;27478;-65
2024/01/21 02:35:43;;;;;;;23.30;13.02;;;-7.30;99.90;;;;;;502973;236;27449;-64
2024/01/21 02:37:44;;;;;;;21.08;12.48;;;-7.30;99.90;;;;;;502997;236;27523;-64
2024/01/21 02:39:45;;;;;;;26.08;14.40;;;-7.40;99.90;;;;;;503050;236;27944;-65
2024/01/21 02:41:46;;;;;;;25.77;13.18;;;-7.40;99.90;;;;;;503004;236;29076;-64
2024/01/21 02:43:48;;;;;;;25.15;13.48;;;-7.50;99.90;;;;;;503000;236;27479;-64
2024/01/21 02:45:49;;;;;;;20.15;12.20;;;-7.40;99.90;;;;;;502997;236;28738;-64
2024/01/21 02:47:50;;;;;;;17.10;11.57;;;-7.40;99.90;;;;;;503031;236;27442;-65
2024/01/21 02:49:51;;;;;;;19.15;11.98;;;-7.40;99.90;;;;;;503027;236;27487;-65
2024/01/21 02:51:53;;;;;;;20.23;11.05;;;-7.40;99.90;;;;;;502999;236;27915;-65
2024/01/21 02:53:54;;;;;;;18.80;11.00;;;-7.40;99.90;;;;;;503034;236;29092;-65
2024/01/21 02:55:55;;;;;;;19.58;11.85;;;-7.40;99.90;;;;;;502954;236;27510;-66
2024/01/21 02:57:56;;;;;;;15.43;9.68;;;-7.40;99.90;;;;;;503034;236;27463;-64
2024/01/21 02:59:58;;;;;;;16.15;9.90;;;-7.40;99.90;;;;;;503006;236;27520;-64
2024/01/21 03:01:59;;;;;;;18.52;11.98;;;-7.40;99.90;;;;;;502966;236;27558;-65
2024/01/21 03:04:00;;;;;;;18.75;11.38;;;-7.50;99.90;;;;;;503047;236;27463;-64
2024/01/21 03:06:02;;;;;;;20.08;12.18;;;-7.50;99.90;;;;;;502839;236;27479;-66
2024/01/21 03:08:03;;;;;;;18.37;10.82;;;-7.40;99.90;;;;;;502934;236;27555;-64
2024/01/21 03:10:04;;;;;;;15.52;10.18;;;-7.40;99.90;;;;;;502985;236;27489;-65
2024/01/21 03:12:05;;;;;;;17.95;9.70;;;-7.30;99.90;;;;;;503024;236;27507;-65
2024/01/21 03:14:07;;;;;;;19.48;11.05;;;-7.30;99.90;;;;;;503019;236;27970;-64
2024/01/21 03:16:08;;;;;;;21.62;11.48;;;-7.40;99.90;;;;;;502965;236;27953;-64
2024/01/21 03:18:09;;;;;;;18.20;10.10;;;-7.40;99.90;;;;;;502993;236;27446;-64
2024/01/21 03:20:11;;;;;;;17.33;10.65;;;-7.30;99.90;;;;;;502992;236;27534;-64
2024/01/21 03:22:12;;;;;;;19.15;11.55;;;-7.30;99.90;;;;;;502994;236;27498;-65
2024/01/21 03:24:13;;;;;;;17.58;10.68;;;-7.20;99.90;;;;;;502993;236;27462;-64
2024/01/21 03:26:14;;;;;;;15.82;10.00;;;-7.00;99.90;;;;;;502913;236;27499;-64
2024/01/21 03:28:15;;;;;;;19.60;10.57;;;-7.00;99.90;;;;;;503029;236;27478;-66
2024/01/21 03:30:17;;;;;;;20.30;11.15;;;-7.00;99.90;;;;;;502964;236;27926;-64
2024/01/21 03:32:18;;;;;;;15.95;10.23;;;-7.00;99.90;;;;;;503018;236;29171;-64
2024/01/21 03:34:19;;;;;;;14.25;9.65;;;-7.20;99.90;;;;;;503021;236;27446;-64
2024/01/21 03:36:20;;;;;;;16.85;11.85;;;-7.20;99.90;;;;;;502961;236;27457;-64
2024/01/21 03:38:22;;;;;;;18.80;10.57;;;-7.20;99.90;;;;;;503038;236;27477;-65
2024/01/21 03:40:23;;;;;;;17.35;9.57;;;-7.10;99.90;;;;;;503057;236;27467;-64
2024/01/21 03:42:24;;;;;;;17.33;9.77;;;-7.10;99.90;;;;;;502983;236;27473;-65
2024/01/21 03:44:26;;;;;;;14.18;9.40;;;-7.10;99.90;;;;;;503014;236;28679;-64
2024/01/21 03:46:27;;;;;;;19.55;10.68;;;-7.00;99.90;;;;;;502944;236;29021;-65
2024/01/21 03:48:28;;;;;;;16.52;10.20;;;-7.00;99.90;;;;;;503028;236;28574;-65
2024/01/21 03:50:29;;;;;;;21.12;10.75;;;-6.90;99.90;;;;;;502989;236;27491;-64
2024/01/21 03:52:31;;;;;;;18.77;10.60;;;-6.90;99.90;;;;;;502965;236;27591;-64
2024/01/21 03:54:32;;;;;;;17.10;11.32;;;-7.00;99.90;;;;;;502857;236;27941;-65
2024/01/21 03:56:33;;;;;;;19.80;11.38;;;-7.30;99.90;;;;;;503024;236;27461;-64
2024/01/21 03:58:34;;;;;;;23.58;12.13;;;-7.50;99.90;;;;;;503085;236;28049;-64
2024/01/21 04:00:36;;;;;;;18.83;11.80;;;-7.60;99.90;;;;;;503086;236;27434;-64
2024/01/21 04:02:37;;;;;;;16.80;9.90;;;-7.70;99.90;;;;;;503046;236;27450;-64
2024/01/21 04:04:38;;;;;;;14.32;8.35;;;-7.80;99.90;;;;;;503008;236;27482;-64
2024/01/21 04:06:39;;;;;;;15.10;9.35;;;-7.80;99.90;;;;;;503075;236;27458;-64
2024/01/21 04:08:41;;;;;;;14.55;8.73;;;-7.90;99.90;;;;;;502993;236;27534;-65
2024/01/21 04:10:42;;;;;;;14.90;9.95;;;-7.90;99.90;;;;;;502885;236;27446;-64
2024/01/21 04:12:43;;;;;;;15.20;8.82;;;-7.80;99.90;;;;;;503025;236;28046;-64
2024/01/21 04:14:44;;;;;;;13.35;8.45;;;-7.80;99.90;;;;;;503034;236;27953;-65
2024/01/21 04:16:46;;;;;;;14.18;9.70;;;-7.90;99.90;;;;;;503047;236;27486;-65
2024/01/21 04:18:47;;;;;;;13.68;9.45;;;-7.90;99.90;;;;;;502991;236;27483;-64
2024/01/21 04:20:48;;;;;;;18.30;9.77;;;-7.90;99.90;;;;;;502686;236;27485;-64
2024/01/21 04:22:49;;;;;;;14.65;9.82;;;-7.70;99.90;;;;;;503044;236;27465;-64
2024/01/21 04:24:51;;;;;;;16.52;9.88;;;-7.80;99.90;;;;;;502966;236;27475;-64
2024/01/21 04:26:52;;;;;;;16.08;10.32;;;-7.60;99.90;;;;;;503027;236;27445;-64
2024/01/21 04:28:53;;;;;;;18.05;10.30;;;-7.50;99.90;;;;;;503034;236;29021;-64
2024/01/21 04:30:54;;;;;;;18.25;9.93;;;-7.50;99.90;;;;;;503084;236;27479;-65
2024/01/21 04:32:56;;;;;;;20.08;9.57;;;-7.50;99.90;;;;;;503049;236;27457;-64
2024/01/21 04:34:57;;;;;;;17.30;10.27;;;-7.50;99.90;;;;;;502946;236;27507;-65
2024/01/21 04:36:58;;;;;;;18.95;11.85;;;-7.40;99.90;;;;;;503055;236;27626;-64
2024/01/21 04:38:59;;;;;;;20.10;11.15;;;-7.40;99.90;;;;;;503073;236;27438;-64
2024/01/21 04:41:01;;;;;;;24.70;13.60;;;-7.30;99.90;;;;;;503085;236;29088;-65
2024/01/21 04:43:02;;;;;;;21.85;13.55;;;-7.20;99.90;;;;;;503054;236;27989;-64
2024/01/21 04:45:03;;;;;;;20.67;11.93;;;-7.10;99.90;;;;;;503020;236;28562;-64
2024/01/21 04:47:05;;;;;;;21.25;12.80;;;-7.10;99.90;;;;;;503069;236;27509;-64
2024/01/21 04:49:06;;;;;;;22.90;12.60;;;-7.10;99.90;;;;;;503078;236;27440;-64
2024/01/21 04:51:07;;;;;;;22.42;13.48;;;-7.10;99.90;;;;;;503102;236;28659;-65
2024/01/21 04:53:08;;;;;;;28.10;15.27;;;-7.10;99.90;;;;;;503009;236;27497;-64
2024/01/21 04:55:10;;;;;;;32.20;16.08;;;-7.00;99.90;;;;;;502912;236;27991;-64
2024/01/21 04:57:11;;;;;;;26.52;15.23;;;-6.90;99.90;;;;;;502883;236;27538;-66
2024/01/21 04:59:12;;;;;;;29.30;14.70;;;-6.80;99.90;;;;;;503024;236;27441;-64
2024/01/21 05:01:13;;;;;;;32.90;17.25;;;-6.80;99.90;;;;;;502957;236;27469;-65
2024/01/21 05:03:15;;;;;;;27.23;15.15;;;-6.70;99.90;;;;;;502913;236;27444;-64
2024/01/21 05:05:16;;;;;;;29.65;16.42;;;-6.70;99.90;;;;;;502978;236;27490;-64
2024/01/21 05:07:17;;;;;;;28.45;15.85;;;-6.70;99.90;;;;;;503061;236;27926;-64
2024/01/21 05:09:18;;;;;;;25.08;15.30;;;-6.70;99.90;;;;;;503016;236;27943;-65
2024/01/21 05:11:20;;;;;;;23.95;15.20;;;-6.80;99.90;;;;;;503051;236;27606;-64
2024/01/21 05:13:21;;;;;;;22.58;15.40;;;-6.80;99.90;;;;;;503032;236;27581;-65
2024/01/21 05:15:22;;;;;;;28.87;14.75;;;-6.80;99.90;;;;;;502970;236;27446;-64
2024/01/21 05:17:23;;;;;;;23.42;14.35;;;-6.80;99.90;;;;;;503027;236;27483;-64
2024/01/21 05:19:25;;;;;;;27.80;15.73;;;-6.80;99.90;;;;;;502863;236;28005;-64
2024/01/21 05:21:26;;;;;;;27.08;14.48;;;-6.80;99.90;;;;;;503029;236;29075;-65
2024/01/21 05:23:27;;;;;;;21.58;13.35;;;-6.80;99.90;;;;;;503037;236;27506;-66
2024/01/21 05:25:28;;;;;;;28.65;14.65;;;-6.80;99.90;;;;;;502971;236;28575;-65
2024/01/21 05:27:30;;;;;;;29.08;14.32;;;-6.80;99.90;;;;;;503018;236;27547;-64
2024/01/21 05:29:31;;;;;;;21.60;13.50;;;-6.80;99.90;;;;;;503006;236;27454;-65
2024/01/21 05:31:33;;;;;;;23.80;13.98;;;-6.80;99.90;;;;;;503047;236;27525;-64
2024/01/21 05:33:33;;;;;;;24.52;14.30;;;-6.80;99.90;;;;;;503013;236;29056;-65
2024/01/21 05:35:35;;;;;;;24.15;13.40;;;-6.70;99.90;;;;;;502947;236;27433;-64
2024/01/21 05:37:36;;;;;;;23.02;12.98;;;-6.60;99.90;;;;;;502963;236;27549;-64
2024/01/21 05:39:37;;;;;;;25.15;13.43;;;-6.60;99.90;;;;;;503067;236;27623;-65
2024/01/21 05:41:39;;;;;;;23.90;13.50;;;-6.50;99.90;;;;;;503002;236;27500;-64
2024/01/21 05:43:40;;;;;;;25.48;13.82;;;-6.50;99.90;;;;;;503030;236;27485;-65
2024/01/21 05:45:41;;;;;;;27.60;14.82;;;-6.40;99.90;;;;;;502753;236;27958;-64
2024/01/21 05:47:42;;;;;;;26.95;13.90;;;-6.40;99.90;;;;;;502939;236;27989;-64
2024/01/21 05:49:44;;;;;;;25.58;13.55;;;-6.30;99.90;;;;;;503050;236;27486;-65
2024/01/21 05:51:45;;;;;;;27.48;14.18;;;-6.20;99.90;;;;;;503074;236;27447;-64
2024/01/21 05:53:46;;;;;;;26.70;13.70;;;-6.20;99.90;;;;;;503022;236;27535;-64
2024/01/21 05:55:47;;;;;;;23.98;13.40;;;-6.10;99.90;;;;;;502949;236;27479;-64
2024/01/21 05:57:49;;;;;;;25.88;13.20;;;-6.00;99.90;;;;;;503056;236;27933;-64
2024/01/21 05:59:50;;;;;;;24.05;12.65;;;-6.00;99.90;;;;;;503047;236;27950;-65
2024/01/21 06:01:51;;;;;;;22.05;13.68;;;-5.90;99.90;;;;;;502999;236;27437;-65
2024/01/21 06:03:52;;;;;;;21.48;12.27;;;-5.80;99.90;;;;;;503001;236;27502;-65
2024/01/21 06:05:54;;;;;;;23.30;13.95;;;-5.70;99.90;;;;;;503036;236;27597;-65
2024/01/21 06:07:55;;;;;;;19.95;11.88;;;-5.60;99.90;;;;;;503025;236;27468;-65
2024/01/21 06:09:56;;;;;;;24.23;12.90;;;-5.50;99.90;;;;;;503030;236;27897;-65
2024/01/21 06:11:57;;;;;;;22.42;10.38;;;-5.40;99.90;;;;;;502998;236;29127;-64
2024/01/21 06:13:59;;;;;;;20.15;11.55;;;-5.30;99.90;;;;;;503041;236;27478;-64
2024/01/21 06:16:01;;;;;;;18.50;10.90;;;-5.20;99.90;;;;;;503008;236;27504;-65
2024/01/21 06:18:01;;;;;;;17.23;10.85;;;-5.10;99.90;;;;;;502941;236;27431;-65
2024/01/21 06:20:03;;;;;;;17.17;10.32;;;-5.10;99.90;;;;;;502992;236;27608;-65
2024/01/21 06:22:04;;;;;;;16.80;10.68;;;-5.10;99.90;;;;;;502995;236;27871;-65
2024/01/21 06:24:05;;;;;;;21.75;11.85;;;-5.00;99.90;;;;;;502911;236;27901;-64
2024/01/21 06:26:06;;;;;;;20.23;11.50;;;-4.90;99.90;;;;;;502778;236;27995;-65
2024/01/21 06:28:08;;;;;;;24.58;12.05;;;-4.80;99.90;;;;;;502674;236;27435;-64
2024/01/21 06:30:09;;;;;;;24.00;12.70;;;-4.50;99.90;;;;;;502788;236;27506;-65
2024/01/21 06:32:10;;;;;;;22.65;12.88;;;-4.30;99.90;;;;;;503011;236;27521;-65
2024/01/21 06:34:11;;;;;;;24.45;13.40;;;-4.10;99.90;;;;;;503012;236;27470;-64
2024/01/21 06:36:13;;;;;;;26.23;13.05;;;-3.90;99.90;;;;;;502976;236;27952;-66
2024/01/21 06:38:14;;;;;;;24.83;13.15;;;-3.80;99.90;;;;;;503010;236;27900;-64
2024/01/21 06:40:15;;;;;;;23.67;12.98;;;-3.80;99.90;;;;;;503051;236;27434;-64
2024/01/21 06:42:16;;;;;;;28.87;14.35;;;-3.80;99.90;;;;;;503002;236;27483;-66
2024/01/21 06:44:19;;;;;;;22.90;11.93;;;;;;;;;;503003;236;27547;-64
2024/01/21 06:46:20;;;;;;;24.10;12.07;;;-3.60;99.90;;;;;;502846;236;26736;-66
2024/01/21 06:48:21;;;;;;;26.20;12.68;;;-3.50;99.90;;;;;;503028;236;27455;-65
2024/01/21 06:50:24;;;;;;;29.60;14.70;;;;;;;;;;503024;236;27472;-64
2024/01/21 06:52:26;;;;;;;26.42;13.50;;;;;;;;;;502977;236;27476;-66
2024/01/21 06:54:29;;;;;;;24.92;13.40;;;;;;;;;;503033;236;26578;-65
2024/01/21 06:56:31;;;;;;;25.27;13.10;;;;;;;;;;502932;236;26605;-64
2024/01/21 06:58:32;;;;;;;28.67;12.27;;;-2.90;99.90;;;;;;503049;236;27288;-67
2024/01/21 07:00:34;;;;;;;25.12;13.18;;;-2.80;99.90;;;;;;503029;236;27824;-65
2024/01/21 07:02:35;;;;;;;25.88;13.18;;;-2.80;99.90;;;;;;503005;236;27090;-65
2024/01/21 07:04:37;;;;;;;23.50;12.75;;;;;;;;;;502957;236;27310;-66
2024/01/21 07:06:40;;;;;;;26.77;13.70;;;-2.70;99.90;;;;;;503040;236;28205;-65
2024/01/21 07:08:40;;;;;;;24.58;13.55;;;-2.60;99.90;;;;;;502925;236;27056;-65
2024/01/21 07:10:41;;;;;;;28.80;13.90;;;-2.40;99.90;;;;;;503016;236;27241;-65
2024/01/21 07:12:42;;;;;;;26.42;13.18;;;-2.50;99.90;;;;;;502975;236;27168;-65
2024/01/21 07:14:44;;;;;;;24.30;13.02;;;-2.40;99.90;;;;;;502821;236;27011;-65
2024/01/21 07:16:45;;;;;;;27.08;14.27;;;-2.30;99.90;;;;;;503007;236;27688;-65
2024/01/21 07:18:46;;;;;;;25.80;13.02;;;-2.30;99.90;;;;;;503002;236;28789;-65
2024/01/21 07:20:47;;;;;;;25.42;14.70;;;-2.30;99.90;;;;;;503007;236;27486;-65
2024/01/21 07:22:49;;;;;;;25.37;13.35;;;-2.20;99.90;;;;;;503025;236;27403;-65
2024/01/21 07:24:50;;;;;;;30.83;14.65;;;-2.30;99.90;;;;;;502967;236;27397;-65
2024/01/21 07:26:51;;;;;;;25.00;11.82;;;-2.20;99.90;;;;;;502990;236;27202;-65
2024/01/21 07:28:52;;;;;;;25.17;12.60;;;-2.20;99.90;;;;;;502982;236;26998;-65
2024/01/21 07:30:54;;;;;;;22.02;12.85;;;-2.20;99.90;;;;;;503003;236;27887;-65
2024/01/21 07:32:55;;;;;;;26.10;11.70;;;-2.20;99.90;;;;;;502857;236;27266;-66
2024/01/21 07:34:57;;;;;;;21.00;12.65;;;-2.20;99.90;;;;;;502994;236;27154;-65
2024/01/21 07:36:57;;;;;;;25.67;13.88;;;-2.20;99.90;;;;;;503021;236;27506;-65
2024/01/21 07:38:59;;;;;;;22.37;12.35;;;-2.10;99.90;;;;;;503067;236;27182;-64
2024/01/21 07:41:00;;;;;;;22.37;12.18;;;-2.00;99.90;;;;;;503093;236;27271;-64
2024/01/21 07:43:01;;;;;;;24.42;13.25;;;-1.90;99.90;;;;;;503031;236;27914;-66
2024/01/21 07:45:02;;;;;;;25.80;12.48;;;-1.90;99.90;;;;;;502917;236;28046;-65
2024/01/21 07:47:04;;;;;;;27.35;13.93;;;-2.00;99.90;;;;;;503025;236;27501;-66
2024/01/21 07:49:05;;;;;;;22.77;12.68;;;-2.00;99.90;;;;;;503056;236;27366;-66
2024/01/21 07:51:06;;;;;;;23.15;12.18;;;-2.00;99.90;;;;;;503062;236;27369;-65
2024/01/21 07:53:07;;;;;;;24.15;13.55;;;-2.00;99.90;;;;;;503017;236;27298;-66
2024/01/21 07:55:09;;;;;;;26.50;14.40;;;-2.00;99.90;;;;;;502987;236;27874;-65
2024/01/21 07:57:10;;;;;;;23.20;12.75;;;-1.90;99.90;;;;;;503046;236;28040;-65
2024/01/21 07:59:11;;;;;;;24.02;13.10;;;-2.00;99.90;;;;;;503044;236;27473;-65
2024/01/21 08:01:13;;;;;;;27.00;13.13;;;-1.90;99.90;;;;;;503043;236;27313;-65
2024/01/21 08:03:14;;;;;;;25.05;12.65;;;-1.90;99.90;;;;;;503017;236;27503;-65
2024/01/21 08:05:15;;;;;;;21.73;13.25;;;-1.90;99.90;;;;;;502995;236;27976;-66
2024/01/21 08:07:16;;;;;;;25.35;13.23;;;-1.90;99.90;;;;;;503081;236;27453;-65
2024/01/21 08:09:18;;;;;;;27.08;13.07;;;-1.90;99.90;;;;;;503077;236;27945;-66
2024/01/21 08:11:19;;;;;;;26.33;13.93;;;-1.90;99.90;;;;;;503027;236;27439;-65
2024/01/21 08:13:20;;;;;;;32.58;13.48;;;-1.80;99.90;;;;;;503019;236;27492;-65
2024/01/21 08:15:23;;;;;;;25.30;13.07;;;-1.80;99.90;;;;;;503009;236;27473;-66
2024/01/21 08:17:24;;;;;;;28.10;13.80;;;-1.80;99.90;;;;;;503040;236;27526;-65
2024/01/21 08:19:25;;;;;;;22.23;13.02;;;-1.70;99.90;;;;;;503046;236;27891;-65
2024/01/21 08:21:26;;;;;;;27.87;14.15;;;-1.70;99.90;;;;;;503065;236;27895;-65
2024/01/21 08:23:28;;;;;;;27.80;14.32;;;-1.60;99.90;;;;;;503078;236;27471;-66
2024/01/21 08:25:29;;;;;;;22.45;14.25;;;-1.50;99.90;;;;;;502955;236;27431;-65
2024/01/21 08:27:31;;;;;;;24.45;13.15;;;-1.50;99.90;;;;;;503039;236;27477;-66
2024/01/21 08:29:31;;;;;;;26.58;13.62;;;-1.50;99.90;;;;;;503087;236;27824;-66
2024/01/21 08:31:33;;;;;;;19.95;12.90;;;-1.40;99.90;;;;;;503071;236;27922;-65
2024/01/21 08:33:34;;;;;;;25.42;13.55;;;-1.40;99.90;;;;;;503059;236;29116;-66
2024/01/21 08:35:36;;;;;;;23.08;11.85;;;-1.30;99.90;;;;;;502999;236;27451;-65
2024/01/21 08:37:37;;;;;;;27.55;14.27;;;-1.30;99.90;;;;;;503037;236;27462;-65
2024/01/21 08:39:38;;;;;;;27.70;14.27;;;-1.20;99.90;;;;;;502979;236;27540;-66
2024/01/21 08:41:39;;;;;;;22.35;12.05;;;-1.20;99.90;;;;;;502804;236;27462;-65
2024/01/21 08:43:40;;;;;;;26.45;14.98;;;-1.20;99.90;;;;;;503014;236;27581;-65
2024/01/21 08:45:41;;;;;;;26.27;14.27;;;-1.20;99.90;;;;;;502971;236;28659;-65
2024/01/21 08:47:43;;;;;;;23.15;13.38;;;-1.20;99.90;;;;;;503055;236;27457;-65
2024/01/21 08:49:44;;;;;;;23.10;12.90;;;-1.20;99.90;;;;;;502951;236;27499;-66
2024/01/21 08:51:45;;;;;;;26.10;13.35;;;-1.20;99.90;;;;;;503014;236;27556;-66
2024/01/21 08:53:46;;;;;;;22.52;12.80;;;-1.10;99.90;;;;;;502993;236;27641;-66
2024/01/21 08:55:48;;;;;;;21.85;11.73;;;-1.10;99.90;;;;;;503045;236;27494;-66
2024/01/21 08:57:49;;;;;;;23.33;12.82;;;-1.00;99.90;;;;;;503045;236;27920;-65
2024/01/21 08:59:51;;;;;;;23.08;12.90;;;-1.00;99.90;;;;;;503018;236;27992;-65
2024/01/21 09:01:52;;;;;;;23.60;12.80;;;-1.00;99.90;;;;;;503025;236;27457;-65
2024/01/21 09:03:53;;;;;;;23.65;12.82;;;-1.00;99.90;;;;;;503018;236;27482;-65
2024/01/21 09:05:54;;;;;;;23.80;13.52;;;-1.00;99.90;;;;;;503028;236;27505;-66
2024/01/21 09:07:55;;;;;;;27.65;12.55;;;-1.00;99.90;;;;;;503022;236;27461;-65
2024/01/21 09:09:57;;;;;;;21.67;13.43;;;-0.90;99.90;;;;;;503019;236;27946;-66
2024/01/21 09:11:58;;;;;;;19.02;11.63;;;-0.90;99.90;;;;;;503000;236;29004;-65
2024/01/21 09:13:59;;;;;;;20.33;12.60;;;-0.80;99.90;;;;;;503026;236;27540;-65
2024/01/21 09:16:00;;;;;;;25.92;11.38;;;-0.80;99.90;;;;;;502899;236;27482;-65
2024/01/21 09:18:02;;;;;;;19.20;11.30;;;-0.70;99.90;;;;;;503005;236;27526;-66
2024/01/21 09:20:03;;;;;;;22.00;12.90;;;-0.70;99.90;;;;;;503001;236;27532;-66
2024/01/21 09:22:04;;;;;;;24.98;13.55;;;-0.60;99.90;;;;;;503052;236;27497;-66
2024/01/21 09:24:05;;;;;;;25.67;13.05;;;-0.50;99.90;;;;;;503029;236;27444;-65
2024/01/21 09:26:07;;;;;;;21.75;12.90;;;-0.50;99.90;;;;;;502947;236;27927;-65
2024/01/21 09:28:08;;;;;;;17.62;11.73;;;-0.50;99.90;;;;;;502998;236;27916;-65
2024/01/21 09:30:09;;;;;;;22.13;13.75;;;-0.50;99.90;;;;;;503060;236;27528;-65
2024/01/21 09:32:13;;;;;;;25.40;14.27;;;-0.50;99.90;;;;;;503068;236;27601;-66
2024/01/21 09:34:15;;;;;;;20.10;12.65;;;-0.40;99.90;;;;;;503036;236;27508;-66
2024/01/21 09:36:16;;;;;;;16.27;10.30;;;-0.30;99.90;;;;;;502984;236;27451;-66
2024/01/21 09:38:18;;;;;;;19.08;11.80;;;-0.20;99.90;;;;;;503015;236;27896;-65
2024/01/21 09:40:19;;;;;;;21.33;11.80;;;-0.20;99.90;;;;;;502969;236;28012;-66
2024/01/21 09:42:20;;;;;;;24.45;12.93;;;-0.10;99.90;;;;;;502991;236;29418;-65
2024/01/21 09:44:21;;;;;;;19.80;11.32;;;-0.10;99.90;;;;;;503013;236;27522;-66
2024/01/21 09:46:22;;;;;;;17.12;10.65;;;-0.10;99.90;;;;;;502984;236;27472;-65
2024/01/21 09:48:25;;;;;;;18.95;10.70;;;0.00;99.90;;;;;;503050;236;27584;-66
2024/01/21 09:50:25;;;;;;;16.85;9.75;;;0.00;99.90;;;;;;502979;236;27510;-66
2024/01/21 09:52:26;;;;;;;18.15;10.75;;;0.00;99.90;;;;;;503042;236;27438;-65
2024/01/21 09:54:27;;;;;;;17.92;11.25;;;0.00;99.90;;;;;;503040;236;27489;-66
2024/01/21 09:56:29;;;;;;;18.35;10.52;;;0.00;99.90;;;;;;503047;236;27616;-66
2024/01/21 09:58:30;;;;;;;20.62;11.85;;;0.00;99.90;;;;;;503021;236;27504;-65
2024/01/21 10:00:31;;;;;;;17.65;10.35;;;0.10;99.90;;;;;;503011;236;27966;-65
2024/01/21 10:02:32;;;;;;;18.23;10.85;;;0.10;99.90;;;;;;502952;236;27901;-66
2024/01/21 10:04:34;;;;;;;19.08;10.93;;;0.20;99.90;;;;;;503045;236;27887;-65
2024/01/21 10:06:35;;;;;;;19.73;12.10;;;0.20;99.90;;;;;;503025;236;27615;-66
2024/01/21 10:08:37;;;;;;;22.95;11.55;;;0.20;99.90;;;;;;503015;236;27559;-66
2024/01/21 10:10:37;;;;;;;19.67;10.10;;;0.30;99.90;;;;;;502959;236;27619;-66
2024/01/21 10:12:39;;;;;;;20.08;12.37;;;0.40;99.90;;;;;;503023;236;27465;-66
2024/01/21 10:14:40;;;;;;;19.50;12.00;;;0.40;99.90;;;;;;502935;236;27498;-65
2024/01/21 10:16:42;;;;;;;21.73;12.23;;;0.30;99.90;;;;;;503021;236;27941;-65